sensor_id;sensor_type;location;lat;lon;timestamp;temperature;humidity
5278;DHT22;2662;51.194;6.614;2023-07-20T00:02:25;18.50;99.90
5278;DHT22;2662;51.194;6.614;2023-07-20T00:04:52;18.40;99.90
5278;DHT22;2662;51.194;6.614;2023-07-20T00:07:18;18.40;99.90
5278;DHT22;2662;51.194;6.614;2023-07-20T00:09:45;18.50;99.90
5278;DHT22;2662;51.194;6.614;2023-07-20T00:12:13;18.50;99.90
5278;DHT22;2662;51.194;6.614;2023-07-20T00:14:40;18.50;99.90
5278;DHT22;2662;51.194;6.614;2023-07-20T00:17:08;18.60;99.90
5278;DHT22;2662;51.194;6.614;2023-07-20T00:19:34;18.50;99.90
5278;DHT22;2662;51.194;6.614;2023-07-20T00:22:01;18.50;99.90
5278;DHT22;2662;51.194;6.614;2023-07-20T00:24:30;18.50;99.90
5278;DHT22;2662;51.194;6.614;2023-07-20T00:26:57;18.60;99.90
5278;DHT22;2662;51.194;6.614;2023-07-20T00:29:23;18.60;99.90
5278;DHT22;2662;51.194;6.614;2023-07-20T00:31:50;18.60;99.90
5278;DHT22;2662;51.194;6.614;2023-07-20T00:34:18;18.60;99.90
5278;DHT22;2662;51.194;6.614;2023-07-20T00:36:45;18.60;99.90
5278;DHT22;2662;51.194;6.614;2023-07-20T00:39:11;18.50;99.90
5278;DHT22;2662;51.194;6.614;2023-07-20T00:41:38;18.40;99.90
5278;DHT22;2662;51.194;6.614;2023-07-20T00:44:05;18.40;99.90
5278;DHT22;2662;51.194;6.614;2023-07-20T00:46:32;18.30;99.90
5278;DHT22;2662;51.194;6.614;2023-07-20T00:48:59;18.40;99.90
5278;DHT22;2662;51.194;6.614;2023-07-20T00:51:28;18.50;99.90
5278;DHT22;2662;51.194;6.614;2023-07-20T00:53:55;18.60;99.90
5278;DHT22;2662;51.194;6.614;2023-07-20T00:56:22;18.60;99.90
5278;DHT22;2662;51.194;6.614;2023-07-20T00:58:48;18.60;99.90
5278;DHT22;2662;51.194;6.614;2023-07-20T01:01:15;18.60;99.90
5278;DHT22;2662;51.194;6.614;2023-07-20T01:03:42;18.60;99.90
5278;DHT22;2662;51.194;6.614;2023-07-20T01:06:19;18.60;99.90
5278;DHT22;2662;51.194;6.614;2023-07-20T01:08:58;18.60;99.90
5278;DHT22;2662;51.194;6.614;2023-07-20T01:11:36;18.60;99.90
5278;DHT22;2662;51.194;6.614;2023-07-20T01:14:05;18.50;99.90
5278;DHT22;2662;51.194;6.614;2023-07-20T01:16:33;18.50;99.90
5278;DHT22;2662;51.194;6.614;2023-07-20T01:19:00;18.40;99.90
5278;DHT22;2662;51.194;6.614;2023-07-20T01:21:32;18.30;99.90
5278;DHT22;2662;51.194;6.614;2023-07-20T01:24:54;18.20;99.90
5278;DHT22;2662;51.194;6.614;2023-07-20T01:27:49;18.10;99.90
5278;DHT22;2662;51.194;6.614;2023-07-20T01:30:44;18.00;99.90
5278;DHT22;2662;51.194;6.614;2023-07-20T01:33:15;18.00;99.90
5278;DHT22;2662;51.194;6.614;2023-07-20T01:35:43;17.90;99.90
5278;DHT22;2662;51.194;6.614;2023-07-20T01:38:12;17.90;99.90
5278;DHT22;2662;51.194;6.614;2023-07-20T01:40:41;17.90;99.90
5278;DHT22;2662;51.194;6.614;2023-07-20T01:43:07;17.90;99.90
5278;DHT22;2662;51.194;6.614;2023-07-20T01:45:34;18.00;99.90
5278;DHT22;2662;51.194;6.614;2023-07-20T01:48:01;18.00;99.90
5278;DHT22;2662;51.194;6.614;2023-07-20T01:50:29;18.00;99.90
5278;DHT22;2662;51.194;6.614;2023-07-20T01:52:56;18.00;99.90
5278;DHT22;2662;51.194;6.614;2023-07-20T01:55:22;17.90;99.90
5278;DHT22;2662;51.194;6.614;2023-07-20T01:57:51;17.80;99.90
5278;DHT22;2662;51.194;6.614;2023-07-20T02:00:18;17.70;99.90
5278;DHT22;2662;51.194;6.614;2023-07-20T02:02:47;17.70;99.90
5278;DHT22;2662;51.194;6.614;2023-07-20T02:05:13;17.60;99.90
5278;DHT22;2662;51.194;6.614;2023-07-20T02:07:41;17.60;99.90
5278;DHT22;2662;51.194;6.614;2023-07-20T02:10:09;17.50;99.90
5278;DHT22;2662;51.194;6.614;2023-07-20T02:12:35;17.50;99.90
5278;DHT22;2662;51.194;6.614;2023-07-20T02:15:03;17.40;99.90
5278;DHT22;2662;51.194;6.614;2023-07-20T02:17:29;17.40;99.90
5278;DHT22;2662;51.194;6.614;2023-07-20T02:19:56;17.40;99.90
5278;DHT22;2662;51.194;6.614;2023-07-20T02:22:23;17.30;99.90
5278;DHT22;2662;51.194;6.614;2023-07-20T02:24:52;17.30;99.90
5278;DHT22;2662;51.194;6.614;2023-07-20T02:27:18;17.30;99.90
5278;DHT22;2662;51.194;6.614;2023-07-20T02:29:45;17.30;99.90
5278;DHT22;2662;51.194;6.614;2023-07-20T02:32:12;17.20;99.90
5278;DHT22;2662;51.194;6.614;2023-07-20T02:34:38;17.20;99.90
5278;DHT22;2662;51.194;6.614;2023-07-20T02:37:05;17.20;99.90
5278;DHT22;2662;51.194;6.614;2023-07-20T02:39:32;17.30;99.90
5278;DHT22;2662;51.194;6.614;2023-07-20T02:42:00;17.20;99.90
5278;DHT22;2662;51.194;6.614;2023-07-20T02:44:27;17.20;99.90
5278;DHT22;2662;51.194;6.614;2023-07-20T02:46:54;17.20;99.90
5278;DHT22;2662;51.194;6.614;2023-07-20T02:49:20;17.20;99.90
5278;DHT22;2662;51.194;6.614;2023-07-20T02:51:47;17.10;99.90
5278;DHT22;2662;51.194;6.614;2023-07-20T02:54:14;17.00;99.90
5278;DHT22;2662;51.194;6.614;2023-07-20T02:56:41;17.00;99.90
5278;DHT22;2662;51.194;6.614;2023-07-20T02:59:10;16.90;99.90
5278;DHT22;2662;51.194;6.614;2023-07-20T03:01:37;16.90;99.90
5278;DHT22;2662;51.194;6.614;2023-07-20T03:04:04;16.80;99.90
5278;DHT22;2662;51.194;6.614;2023-07-20T03:06:30;16.80;99.90
5278;DHT22;2662;51.194;6.614;2023-07-20T03:08:57;16.70;99.90
5278;DHT22;2662;51.194;6.614;2023-07-20T03:11:24;16.60;99.90
5278;DHT22;2662;51.194;6.614;2023-07-20T03:13:51;16.60;99.90
5278;DHT22;2662;51.194;6.614;2023-07-20T03:16:20;16.50;99.90
5278;DHT22;2662;51.194;6.614;2023-07-20T03:18:46;16.50;99.90
5278;DHT22;2662;51.194;6.614;2023-07-20T03:21:13;16.50;99.90
5278;DHT22;2662;51.194;6.614;2023-07-20T03:23:40;16.40;99.90
5278;DHT22;2662;51.194;6.614;2023-07-20T03:26:08;16.40;99.90
5278;DHT22;2662;51.194;6.614;2023-07-20T03:28:35;16.40;99.90
5278;DHT22;2662;51.194;6.614;2023-07-20T03:31:01;16.40;99.90
5278;DHT22;2662;51.194;6.614;2023-07-20T03:33:30;16.40;99.90
5278;DHT22;2662;51.194;6.614;2023-07-20T03:35:57;16.50;99.90
5278;DHT22;2662;51.194;6.614;2023-07-20T03:38:25;16.70;99.90
5278;DHT22;2662;51.194;6.614;2023-07-20T03:40:52;16.80;99.90
5278;DHT22;2662;51.194;6.614;2023-07-20T03:43:20;16.90;99.90
5278;DHT22;2662;51.194;6.614;2023-07-20T03:45:46;16.90;99.90
5278;DHT22;2662;51.194;6.614;2023-07-20T03:48:14;17.00;99.90
5278;DHT22;2662;51.194;6.614;2023-07-20T03:50:44;17.10;99.90
5278;DHT22;2662;51.194;6.614;2023-07-20T03:53:11;17.20;99.90
5278;DHT22;2662;51.194;6.614;2023-07-20T03:55:37;17.20;99.90
5278;DHT22;2662;51.194;6.614;2023-07-20T03:58:06;17.30;99.90
5278;DHT22;2662;51.194;6.614;2023-07-20T04:00:33;17.40;99.90
5278;DHT22;2662;51.194;6.614;2023-07-20T04:02:59;17.50;99.90
5278;DHT22;2662;51.194;6.614;2023-07-20T04:05:26;17.50;99.90
5278;DHT22;2662;51.194;6.614;2023-07-20T04:07:54;17.50;99.90
5278;DHT22;2662;51.194;6.614;2023-07-20T04:10:21;17.60;99.90
5278;DHT22;2662;51.194;6.614;2023-07-20T04:12:48;17.60;99.90
5278;DHT22;2662;51.194;6.614;2023-07-20T04:15:15;17.60;99.90
5278;DHT22;2662;51.194;6.614;2023-07-20T04:17:41;17.60;99.90
5278;DHT22;2662;51.194;6.614;2023-07-20T04:20:09;17.70;99.90
5278;DHT22;2662;51.194;6.614;2023-07-20T04:22:35;17.80;99.90
5278;DHT22;2662;51.194;6.614;2023-07-20T04:25:04;17.90;99.90
5278;DHT22;2662;51.194;6.614;2023-07-20T04:27:31;18.00;99.90
5278;DHT22;2662;51.194;6.614;2023-07-20T04:29:58;18.10;99.90
5278;DHT22;2662;51.194;6.614;2023-07-20T04:32:25;18.10;99.90
5278;DHT22;2662;51.194;6.614;2023-07-20T04:34:52;18.20;99.90
5278;DHT22;2662;51.194;6.614;2023-07-20T04:37:19;18.20;99.90
5278;DHT22;2662;51.194;6.614;2023-07-20T04:39:46;18.30;99.90
5278;DHT22;2662;51.194;6.614;2023-07-20T04:42:14;18.30;99.90
5278;DHT22;2662;51.194;6.614;2023-07-20T04:44:40;18.30;99.90
5278;DHT22;2662;51.194;6.614;2023-07-20T04:47:07;18.40;99.90
5278;DHT22;2662;51.194;6.614;2023-07-20T04:49:34;18.50;99.90
5278;DHT22;2662;51.194;6.614;2023-07-20T04:52:02;18.50;99.90
5278;DHT22;2662;51.194;6.614;2023-07-20T04:54:29;18.60;99.90
5278;DHT22;2662;51.194;6.614;2023-07-20T04:56:55;18.70;99.90
5278;DHT22;2662;51.194;6.614;2023-07-20T04:59:23;18.80;99.90
5278;DHT22;2662;51.194;6.614;2023-07-20T05:01:50;18.80;99.90
5278;DHT22;2662;51.194;6.614;2023-07-20T05:04:18;18.90;99.90
5278;DHT22;2662;51.194;6.614;2023-07-20T05:06:45;19.00;99.90
5278;DHT22;2662;51.194;6.614;2023-07-20T05:09:11;18.90;99.90
5278;DHT22;2662;51.194;6.614;2023-07-20T05:11:38;19.00;99.90
5278;DHT22;2662;51.194;6.614;2023-07-20T05:14:05;19.00;99.90
5278;DHT22;2662;51.194;6.614;2023-07-20T05:16:33;19.10;99.90
5278;DHT22;2662;51.194;6.614;2023-07-20T05:18:59;19.20;99.90
5278;DHT22;2662;51.194;6.614;2023-07-20T05:21:26;19.20;99.90
5278;DHT22;2662;51.194;6.614;2023-07-20T05:23:53;19.30;99.90
5278;DHT22;2662;51.194;6.614;2023-07-20T05:26:20;19.50;99.90
5278;DHT22;2662;51.194;6.614;2023-07-20T05:28:46;19.60;99.90
5278;DHT22;2662;51.194;6.614;2023-07-20T05:31:13;19.70;99.90
5278;DHT22;2662;51.194;6.614;2023-07-20T05:33:41;19.90;99.90
5278;DHT22;2662;51.194;6.614;2023-07-20T05:36:08;20.10;99.90
5278;DHT22;2662;51.194;6.614;2023-07-20T05:38:35;20.30;99.90
5278;DHT22;2662;51.194;6.614;2023-07-20T05:41:02;20.50;99.90
5278;DHT22;2662;51.194;6.614;2023-07-20T05:43:29;20.90;99.90
5278;DHT22;2662;51.194;6.614;2023-07-20T05:45:56;21.50;99.90
5278;DHT22;2662;51.194;6.614;2023-07-20T05:48:23;22.80;99.90
5278;DHT22;2662;51.194;6.614;2023-07-20T05:50:51;23.30;99.90
5278;DHT22;2662;51.194;6.614;2023-07-20T05:53:19;23.50;99.90
5278;DHT22;2662;51.194;6.614;2023-07-20T05:55:52;23.50;99.90
5278;DHT22;2662;51.194;6.614;2023-07-20T05:58:18;23.00;99.90
5278;DHT22;2662;51.194;6.614;2023-07-20T06:00:47;23.10;99.90
5278;DHT22;2662;51.194;6.614;2023-07-20T06:03:14;23.50;99.90
5278;DHT22;2662;51.194;6.614;2023-07-20T06:05:41;23.80;99.90
5278;DHT22;2662;51.194;6.614;2023-07-20T06:08:09;23.40;99.90
5278;DHT22;2662;51.194;6.614;2023-07-20T06:10:36;23.40;99.90
5278;DHT22;2662;51.194;6.614;2023-07-20T06:13:03;24.20;99.90
5278;DHT22;2662;51.194;6.614;2023-07-20T06:15:32;23.80;99.90
5278;DHT22;2662;51.194;6.614;2023-07-20T06:18:00;23.20;99.90
5278;DHT22;2662;51.194;6.614;2023-07-20T06:20:27;22.60;99.90
5278;DHT22;2662;51.194;6.614;2023-07-20T06:22:54;23.20;99.90
5278;DHT22;2662;51.194;6.614;2023-07-20T06:25:22;23.60;99.90
5278;DHT22;2662;51.194;6.614;2023-07-20T06:27:49;23.40;99.90
5278;DHT22;2662;51.194;6.614;2023-07-20T06:30:16;23.60;99.90
5278;DHT22;2662;51.194;6.614;2023-07-20T06:32:43;23.20;99.90
5278;DHT22;2662;51.194;6.614;2023-07-20T06:35:10;24.80;99.90
5278;DHT22;2662;51.194;6.614;2023-07-20T06:37:37;26.90;99.90
5278;DHT22;2662;51.194;6.614;2023-07-20T06:40:05;28.10;99.90
5278;DHT22;2662;51.194;6.614;2023-07-20T06:42:33;29.30;99.90
5278;DHT22;2662;51.194;6.614;2023-07-20T06:45:00;30.20;99.90
5278;DHT22;2662;51.194;6.614;2023-07-20T06:47:27;30.60;99.90
5278;DHT22;2662;51.194;6.614;2023-07-20T06:49:54;31.20;99.90
5278;DHT22;2662;51.194;6.614;2023-07-20T06:52:20;31.10;99.10
5278;DHT22;2662;51.194;6.614;2023-07-20T06:54:47;29.80;99.60
5278;DHT22;2662;51.194;6.614;2023-07-20T06:57:14;27.90;99.90
5278;DHT22;2662;51.194;6.614;2023-07-20T06:59:42;26.90;99.90
5278;DHT22;2662;51.194;6.614;2023-07-20T07:02:08;26.00;99.90
5278;DHT22;2662;51.194;6.614;2023-07-20T07:04:35;25.10;99.90
5278;DHT22;2662;51.194;6.614;2023-07-20T07:07:02;24.10;99.90
5278;DHT22;2662;51.194;6.614;2023-07-20T07:09:29;23.50;99.90
5278;DHT22;2662;51.194;6.614;2023-07-20T07:11:56;23.10;99.90
5278;DHT22;2662;51.194;6.614;2023-07-20T07:14:22;24.70;99.90
5278;DHT22;2662;51.194;6.614;2023-07-20T07:16:50;27.10;99.90
5278;DHT22;2662;51.194;6.614;2023-07-20T07:19:17;29.50;99.90
5278;DHT22;2662;51.194;6.614;2023-07-20T07:21:44;31.10;99.90
5278;DHT22;2662;51.194;6.614;2023-07-20T07:24:11;32.20;98.40
5278;DHT22;2662;51.194;6.614;2023-07-20T07:26:38;32.70;96.30
5278;DHT22;2662;51.194;6.614;2023-07-20T07:29:05;32.60;95.50
5278;DHT22;2662;51.194;6.614;2023-07-20T07:31:34;31.60;95.40
5278;DHT22;2662;51.194;6.614;2023-07-20T07:34:03;31.60;95.70
5278;DHT22;2662;51.194;6.614;2023-07-20T07:36:30;32.50;95.00
5278;DHT22;2662;51.194;6.614;2023-07-20T07:38:56;32.60;93.60
5278;DHT22;2662;51.194;6.614;2023-07-20T07:41:23;33.40;92.60
5278;DHT22;2662;51.194;6.614;2023-07-20T07:43:50;33.20;91.80
5278;DHT22;2662;51.194;6.614;2023-07-20T07:46:17;34.20;91.50
5278;DHT22;2662;51.194;6.614;2023-07-20T07:48:44;34.70;90.30
5278;DHT22;2662;51.194;6.614;2023-07-20T07:51:12;34.90;88.50
5278;DHT22;2662;51.194;6.614;2023-07-20T07:53:39;35.30;88.60
5278;DHT22;2662;51.194;6.614;2023-07-20T07:56:07;34.50;84.10
5278;DHT22;2662;51.194;6.614;2023-07-20T07:58:33;33.20;86.20
5278;DHT22;2662;51.194;6.614;2023-07-20T08:01:01;34.00;87.10
5278;DHT22;2662;51.194;6.614;2023-07-20T08:03:27;35.30;85.90
5278;DHT22;2662;51.194;6.614;2023-07-20T08:05:54;35.00;82.70
5278;DHT22;2662;51.194;6.614;2023-07-20T08:08:23;35.00;81.50
5278;DHT22;2662;51.194;6.614;2023-07-20T08:10:52;34.70;82.20
5278;DHT22;2662;51.194;6.614;2023-07-20T08:13:19;35.20;81.60
5278;DHT22;2662;51.194;6.614;2023-07-20T08:15:49;36.20;80.40
5278;DHT22;2662;51.194;6.614;2023-07-20T08:18:16;37.20;75.90
5278;DHT22;2662;51.194;6.614;2023-07-20T08:20:44;36.10;75.30
5278;DHT22;2662;51.194;6.614;2023-07-20T08:23:10;33.80;76.30
5278;DHT22;2662;51.194;6.614;2023-07-20T08:25:38;31.40;78.60
5278;DHT22;2662;51.194;6.614;2023-07-20T08:28:09;30.70;83.10
5278;DHT22;2662;51.194;6.614;2023-07-20T08:30:46;32.20;83.10
5278;DHT22;2662;51.194;6.614;2023-07-20T08:33:14;32.90;83.10
5278;DHT22;2662;51.194;6.614;2023-07-20T08:35:41;33.20;80.40
5278;DHT22;2662;51.194;6.614;2023-07-20T08:38:09;33.80;79.90
5278;DHT22;2662;51.194;6.614;2023-07-20T08:40:40;34.10;77.10
5278;DHT22;2662;51.194;6.614;2023-07-20T08:43:08;34.70;77.00
5278;DHT22;2662;51.194;6.614;2023-07-20T08:45:36;34.70;75.90
5278;DHT22;2662;51.194;6.614;2023-07-20T08:48:05;35.60;76.00
5278;DHT22;2662;51.194;6.614;2023-07-20T08:50:33;35.00;73.20
5278;DHT22;2662;51.194;6.614;2023-07-20T08:53:01;33.20;73.60
5278;DHT22;2662;51.194;6.614;2023-07-20T08:55:28;32.10;76.10
5278;DHT22;2662;51.194;6.614;2023-07-20T08:57:58;32.90;76.40
5278;DHT22;2662;51.194;6.614;2023-07-20T09:00:26;33.60;75.00
5278;DHT22;2662;51.194;6.614;2023-07-20T09:02:54;34.00;74.70
5278;DHT22;2662;51.194;6.614;2023-07-20T09:05:22;34.40;74.90
5278;DHT22;2662;51.194;6.614;2023-07-20T09:07:50;35.20;72.40
5278;DHT22;2662;51.194;6.614;2023-07-20T09:10:17;34.80;71.60
5278;DHT22;2662;51.194;6.614;2023-07-20T09:12:44;35.60;70.60
5278;DHT22;2662;51.194;6.614;2023-07-20T09:15:12;35.40;68.00
5278;DHT22;2662;51.194;6.614;2023-07-20T09:17:39;35.20;68.10
5278;DHT22;2662;51.194;6.614;2023-07-20T09:20:07;35.00;69.30
5278;DHT22;2662;51.194;6.614;2023-07-20T09:22:36;35.00;68.50
5278;DHT22;2662;51.194;6.614;2023-07-20T09:25:06;34.40;68.70
5278;DHT22;2662;51.194;6.614;2023-07-20T09:27:36;33.50;68.90
5278;DHT22;2662;51.194;6.614;2023-07-20T09:30:04;31.50;70.70
5278;DHT22;2662;51.194;6.614;2023-07-20T09:32:38;30.00;73.20
5278;DHT22;2662;51.194;6.614;2023-07-20T09:35:05;29.30;76.10
5278;DHT22;2662;51.194;6.614;2023-07-20T09:37:33;28.70;78.70
5278;DHT22;2662;51.194;6.614;2023-07-20T09:40:00;29.50;81.10
5278;DHT22;2662;51.194;6.614;2023-07-20T09:42:27;30.80;78.70
5278;DHT22;2662;51.194;6.614;2023-07-20T09:44:53;30.90;78.20
5278;DHT22;2662;51.194;6.614;2023-07-20T09:47:24;30.90;78.70
5278;DHT22;2662;51.194;6.614;2023-07-20T09:49:58;32.20;77.00
5278;DHT22;2662;51.194;6.614;2023-07-20T09:52:25;32.40;72.90
5278;DHT22;2662;51.194;6.614;2023-07-20T09:54:52;32.20;72.80
5278;DHT22;2662;51.194;6.614;2023-07-20T09:57:21;31.60;71.30
5278;DHT22;2662;51.194;6.614;2023-07-20T09:59:48;31.90;70.30
5278;DHT22;2662;51.194;6.614;2023-07-20T10:02:20;32.10;70.00
5278;DHT22;2662;51.194;6.614;2023-07-20T10:04:50;32.90;68.50
5278;DHT22;2662;51.194;6.614;2023-07-20T10:07:19;33.60;68.30
5278;DHT22;2662;51.194;6.614;2023-07-20T10:09:51;34.20;68.90
5278;DHT22;2662;51.194;6.614;2023-07-20T10:12:22;34.70;67.60
5278;DHT22;2662;51.194;6.614;2023-07-20T10:15:05;33.40;67.60
5278;DHT22;2662;51.194;6.614;2023-07-20T10:17:38;31.70;69.80
5278;DHT22;2662;51.194;6.614;2023-07-20T10:20:07;29.80;73.40
5278;DHT22;2662;51.194;6.614;2023-07-20T10:22:37;28.40;75.30
5278;DHT22;2662;51.194;6.614;2023-07-20T10:25:05;28.30;77.90
5278;DHT22;2662;51.194;6.614;2023-07-20T10:27:34;28.90;77.00
5278;DHT22;2662;51.194;6.614;2023-07-20T10:30:01;28.70;78.00
5278;DHT22;2662;51.194;6.614;2023-07-20T10:32:29;29.00;78.30
5278;DHT22;2662;51.194;6.614;2023-07-20T10:34:56;30.00;75.90
5278;DHT22;2662;51.194;6.614;2023-07-20T10:37:53;31.10;74.10
5278;DHT22;2662;51.194;6.614;2023-07-20T10:40:28;31.50;70.90
5278;DHT22;2662;51.194;6.614;2023-07-20T10:42:59;32.30;70.90
5278;DHT22;2662;51.194;6.614;2023-07-20T10:45:50;32.60;69.60
5278;DHT22;2662;51.194;6.614;2023-07-20T10:48:19;32.90;68.40
5278;DHT22;2662;51.194;6.614;2023-07-20T10:53:29;30.70;69.90
5278;DHT22;2662;51.194;6.614;2023-07-20T10:56:06;29.40;71.90
5278;DHT22;2662;51.194;6.614;2023-07-20T10:58:34;28.90;73.10
5278;DHT22;2662;51.194;6.614;2023-07-20T11:01:02;28.60;73.40
5278;DHT22;2662;51.194;6.614;2023-07-20T11:03:30;28.20;73.90
5278;DHT22;2662;51.194;6.614;2023-07-20T11:05:58;28.20;74.90
5278;DHT22;2662;51.194;6.614;2023-07-20T11:08:42;27.90;75.00
5278;DHT22;2662;51.194;6.614;2023-07-20T11:11:22;27.70;74.90
5278;DHT22;2662;51.194;6.614;2023-07-20T11:13:57;27.70;75.70
5278;DHT22;2662;51.194;6.614;2023-07-20T11:16:44;28.20;76.40
5278;DHT22;2662;51.194;6.614;2023-07-20T11:19:17;28.30;76.70
5278;DHT22;2662;51.194;6.614;2023-07-20T11:21:45;28.60;76.30
5278;DHT22;2662;51.194;6.614;2023-07-20T11:24:13;28.50;75.00
5278;DHT22;2662;51.194;6.614;2023-07-20T11:26:44;28.50;75.10
5278;DHT22;2662;51.194;6.614;2023-07-20T11:29:12;28.30;76.30
5278;DHT22;2662;51.194;6.614;2023-07-20T11:31:39;28.10;77.50
5278;DHT22;2662;51.194;6.614;2023-07-20T11:36:34;28.10;76.80
5278;DHT22;2662;51.194;6.614;2023-07-20T11:39:01;27.90;77.10
5278;DHT22;2662;51.194;6.614;2023-07-20T11:41:31;27.90;76.70
5278;DHT22;2662;51.194;6.614;2023-07-20T11:43:59;27.90;78.00
5278;DHT22;2662;51.194;6.614;2023-07-20T11:46:27;27.80;77.60
5278;DHT22;2662;51.194;6.614;2023-07-20T11:48:57;27.60;76.90
5278;DHT22;2662;51.194;6.614;2023-07-20T11:51:26;27.50;78.20
5278;DHT22;2662;51.194;6.614;2023-07-20T11:53:54;27.30;78.00
5278;DHT22;2662;51.194;6.614;2023-07-20T11:56:22;27.10;76.70
5278;DHT22;2662;51.194;6.614;2023-07-20T11:58:50;27.10;75.60
5278;DHT22;2662;51.194;6.614;2023-07-20T12:01:18;26.90;76.20
5278;DHT22;2662;51.194;6.614;2023-07-20T12:03:47;26.90;77.50
5278;DHT22;2662;51.194;6.614;2023-07-20T12:06:14;26.80;77.50
5278;DHT22;2662;51.194;6.614;2023-07-20T12:08:42;26.70;77.20
5278;DHT22;2662;51.194;6.614;2023-07-20T12:11:10;26.70;77.50
5278;DHT22;2662;51.194;6.614;2023-07-20T12:13:38;27.00;77.80
5278;DHT22;2662;51.194;6.614;2023-07-20T12:16:13;27.10;79.00
5278;DHT22;2662;51.194;6.614;2023-07-20T12:18:40;27.40;76.90
5278;DHT22;2662;51.194;6.614;2023-07-20T12:21:07;27.80;76.70
5278;DHT22;2662;51.194;6.614;2023-07-20T12:23:38;28.10;76.30
5278;DHT22;2662;51.194;6.614;2023-07-20T12:26:06;28.20;75.30
5278;DHT22;2662;51.194;6.614;2023-07-20T12:28:36;27.70;76.70
5278;DHT22;2662;51.194;6.614;2023-07-20T12:31:04;27.70;77.80
5278;DHT22;2662;51.194;6.614;2023-07-20T12:33:33;27.50;78.50
5278;DHT22;2662;51.194;6.614;2023-07-20T12:36:00;27.30;78.10
5278;DHT22;2662;51.194;6.614;2023-07-20T12:38:27;27.30;77.60
5278;DHT22;2662;51.194;6.614;2023-07-20T12:40:54;27.30;78.10
5278;DHT22;2662;51.194;6.614;2023-07-20T12:43:21;27.40;76.10
5278;DHT22;2662;51.194;6.614;2023-07-20T12:45:48;27.40;77.60
5278;DHT22;2662;51.194;6.614;2023-07-20T12:48:15;27.80;76.70
5278;DHT22;2662;51.194;6.614;2023-07-20T12:50:43;28.00;75.00
5278;DHT22;2662;51.194;6.614;2023-07-20T12:53:09;27.90;75.10
5278;DHT22;2662;51.194;6.614;2023-07-20T12:55:37;27.80;74.80
5278;DHT22;2662;51.194;6.614;2023-07-20T12:58:04;27.20;73.30
5278;DHT22;2662;51.194;6.614;2023-07-20T13:00:31;26.70;75.20
5278;DHT22;2662;51.194;6.614;2023-07-20T13:02:58;26.40;77.60
5278;DHT22;2662;51.194;6.614;2023-07-20T13:05:25;26.40;78.10
5278;DHT22;2662;51.194;6.614;2023-07-20T13:07:53;26.40;78.10
5278;DHT22;2662;51.194;6.614;2023-07-20T13:10:20;26.10;79.30
5278;DHT22;2662;51.194;6.614;2023-07-20T13:12:46;25.90;80.00
5278;DHT22;2662;51.194;6.614;2023-07-20T13:15:13;25.50;79.60
5278;DHT22;2662;51.194;6.614;2023-07-20T13:17:40;25.10;81.30
5278;DHT22;2662;51.194;6.614;2023-07-20T13:20:08;25.10;81.80
5278;DHT22;2662;51.194;6.614;2023-07-20T13:22:36;25.10;83.20
5278;DHT22;2662;51.194;6.614;2023-07-20T13:25:06;25.20;83.00
5278;DHT22;2662;51.194;6.614;2023-07-20T13:27:33;25.30;84.40
5278;DHT22;2662;51.194;6.614;2023-07-20T13:30:00;25.20;83.50
5278;DHT22;2662;51.194;6.614;2023-07-20T13:32:27;25.20;84.30
5278;DHT22;2662;51.194;6.614;2023-07-20T13:34:53;25.40;85.50
5278;DHT22;2662;51.194;6.614;2023-07-20T13:37:20;25.30;84.00
5278;DHT22;2662;51.194;6.614;2023-07-20T13:39:47;25.20;83.70
5278;DHT22;2662;51.194;6.614;2023-07-20T13:42:15;24.90;84.80
5278;DHT22;2662;51.194;6.614;2023-07-20T13:44:42;24.80;85.30
5278;DHT22;2662;51.194;6.614;2023-07-20T13:47:09;24.80;85.20
5278;DHT22;2662;51.194;6.614;2023-07-20T13:49:36;24.60;85.60
5278;DHT22;2662;51.194;6.614;2023-07-20T13:52:04;24.70;87.50
5278;DHT22;2662;51.194;6.614;2023-07-20T13:54:30;24.80;88.10
5278;DHT22;2662;51.194;6.614;2023-07-20T13:56:57;24.80;88.90
5278;DHT22;2662;51.194;6.614;2023-07-20T13:59:25;24.80;87.90
5278;DHT22;2662;51.194;6.614;2023-07-20T14:01:52;24.60;88.40
5278;DHT22;2662;51.194;6.614;2023-07-20T14:04:18;24.80;89.00
5278;DHT22;2662;51.194;6.614;2023-07-20T14:06:45;25.00;88.50
5278;DHT22;2662;51.194;6.614;2023-07-20T14:09:12;25.10;87.30
5278;DHT22;2662;51.194;6.614;2023-07-20T14:11:39;25.40;87.50
5278;DHT22;2662;51.194;6.614;2023-07-20T14:14:06;25.60;86.40
5278;DHT22;2662;51.194;6.614;2023-07-20T14:16:34;25.70;86.00
5278;DHT22;2662;51.194;6.614;2023-07-20T14:19:01;25.60;86.30
5278;DHT22;2662;51.194;6.614;2023-07-20T14:21:30;25.80;86.10
5278;DHT22;2662;51.194;6.614;2023-07-20T14:23:57;25.90;85.70
5278;DHT22;2662;51.194;6.614;2023-07-20T14:26:24;26.00;85.80
5278;DHT22;2662;51.194;6.614;2023-07-20T14:28:51;26.00;85.20
5278;DHT22;2662;51.194;6.614;2023-07-20T14:31:18;26.10;84.40
5278;DHT22;2662;51.194;6.614;2023-07-20T14:33:46;26.00;83.90
5278;DHT22;2662;51.194;6.614;2023-07-20T14:36:13;26.30;84.20
5278;DHT22;2662;51.194;6.614;2023-07-20T14:38:40;26.60;84.00
5278;DHT22;2662;51.194;6.614;2023-07-20T14:41:07;27.00;85.10
5278;DHT22;2662;51.194;6.614;2023-07-20T14:43:33;27.40;82.50
5278;DHT22;2662;51.194;6.614;2023-07-20T14:46:00;27.40;82.40
5278;DHT22;2662;51.194;6.614;2023-07-20T14:48:27;27.50;82.10
5278;DHT22;2662;51.194;6.614;2023-07-20T14:50:55;27.30;80.50
5278;DHT22;2662;51.194;6.614;2023-07-20T14:53:22;27.00;80.90
5278;DHT22;2662;51.194;6.614;2023-07-20T14:55:49;26.60;81.50
5278;DHT22;2662;51.194;6.614;2023-07-20T14:58:15;26.30;82.30
5278;DHT22;2662;51.194;6.614;2023-07-20T15:00:42;26.10;83.30
5278;DHT22;2662;51.194;6.614;2023-07-20T15:03:09;26.10;83.10
5278;DHT22;2662;51.194;6.614;2023-07-20T15:05:36;26.10;84.20
5278;DHT22;2662;51.194;6.614;2023-07-20T15:08:05;26.00;83.20
5278;DHT22;2662;51.194;6.614;2023-07-20T15:10:33;26.10;83.50
5278;DHT22;2662;51.194;6.614;2023-07-20T15:13:00;26.00;82.60
5278;DHT22;2662;51.194;6.614;2023-07-20T15:15:28;26.10;85.00
5278;DHT22;2662;51.194;6.614;2023-07-20T15:17:55;26.40;82.70
5278;DHT22;2662;51.194;6.614;2023-07-20T15:20:21;26.40;83.50
5278;DHT22;2662;51.194;6.614;2023-07-20T15:22:48;26.70;82.70
5278;DHT22;2662;51.194;6.614;2023-07-20T15:25:16;26.90;83.00
5278;DHT22;2662;51.194;6.614;2023-07-20T15:27:43;27.10;82.80
5278;DHT22;2662;51.194;6.614;2023-07-20T15:30:10;27.10;81.50
5278;DHT22;2662;51.194;6.614;2023-07-20T15:32:37;26.80;82.60
5278;DHT22;2662;51.194;6.614;2023-07-20T15:35:06;26.90;82.50
5278;DHT22;2662;51.194;6.614;2023-07-20T15:37:33;26.90;82.30
5278;DHT22;2662;51.194;6.614;2023-07-20T15:40:02;26.70;80.50
5278;DHT22;2662;51.194;6.614;2023-07-20T15:42:32;26.70;80.30
5278;DHT22;2662;51.194;6.614;2023-07-20T15:44:58;26.70;79.00
5278;DHT22;2662;51.194;6.614;2023-07-20T15:47:25;26.60;79.40
5278;DHT22;2662;51.194;6.614;2023-07-20T15:49:52;26.40;79.50
5278;DHT22;2662;51.194;6.614;2023-07-20T15:52:20;26.30;79.30
5278;DHT22;2662;51.194;6.614;2023-07-20T15:54:46;26.40;79.30
5278;DHT22;2662;51.194;6.614;2023-07-20T15:57:13;26.50;79.60
5278;DHT22;2662;51.194;6.614;2023-07-20T15:59:41;26.50;78.80
5278;DHT22;2662;51.194;6.614;2023-07-20T16:02:08;26.30;79.00
5278;DHT22;2662;51.194;6.614;2023-07-20T16:04:35;26.30;79.20
5278;DHT22;2662;51.194;6.614;2023-07-20T16:07:01;26.00;78.20
5278;DHT22;2662;51.194;6.614;2023-07-20T16:09:28;26.10;79.90
5278;DHT22;2662;51.194;6.614;2023-07-20T16:11:55;26.40;81.00
5278;DHT22;2662;51.194;6.614;2023-07-20T16:14:22;26.40;79.70